Time;durP1;ratioP1;P1;durP2;ratioP2;P2;SDS_P1;SDS_P2;PMS_P1;PMS_P2;Temp;Humidity;BMP_temperature;BMP_pressure;BME280_temperature;BME280_humidity;BME280_pressure;Samples;Min_cycle;Max_cycle;Signal;HPM_P1;HPM_P2
2021/06/19 00:00:41;;;;;;;19.37;17.90;;;24.10;99.90;;;;;;5027058;28;20642;-71
2021/06/19 00:03:08;;;;;;;19.23;17.73;;;24.10;99.90;;;;;;4989944;28;20619;-71
2021/06/19 00:05:34;;;;;;;20.00;18.40;;;24.00;99.90;;;;;;5026465;28;20444;-70
2021/06/19 00:08:00;;;;;;;18.83;17.43;;;24.00;99.90;;;;;;5029961;28;20494;-70
2021/06/19 00:10:26;;;;;;;19.00;17.50;;;23.90;99.90;;;;;;5029800;28;20571;-71
2021/06/19 00:12:53;;;;;;;21.97;19.97;;;24.00;99.90;;;;;;5028405;28;20809;-71
2021/06/19 00:15:21;;;;;;;18.70;17.00;;;24.00;99.90;;;;;;5026140;28;20460;-71
2021/06/19 00:17:47;;;;;;;19.07;17.57;;;24.00;99.90;;;;;;5025428;28;20762;-70
2021/06/19 00:20:16;;;;;;;19.20;17.60;;;24.00;99.90;;;;;;5028745;28;20424;-70
2021/06/19 00:22:42;;;;;;;19.13;17.33;;;24.10;99.90;;;;;;5027289;28;20830;-70
2021/06/19 00:25:09;;;;;;;18.50;17.00;;;24.20;99.90;;;;;;5027751;28;20439;-70
2021/06/19 00:27:36;;;;;;;18.57;17.07;;;24.20;99.90;;;;;;5028289;28;20456;-70
2021/06/19 00:30:02;;;;;;;16.47;15.20;;;24.30;99.90;;;;;;5029658;28;20519;-70
2021/06/19 00:32:28;;;;;;;16.90;15.70;;;24.30;99.90;;;;;;5027158;28;20535;-71
2021/06/19 00:34:54;;;;;;;17.40;15.70;;;24.30;99.90;;;;;;5028844;28;21001;-70
2021/06/19 00:37:19;;;;;;;17.00;15.70;;;24.30;99.90;;;;;;5031326;28;20181;-70
2021/06/19 00:39:45;;;;;;;17.13;15.63;;;24.40;99.90;;;;;;5027391;28;20248;-70
2021/06/19 00:42:11;;;;;;;16.43;15.13;;;24.40;99.90;;;;;;5021307;28;20174;-71
2021/06/19 00:44:36;;;;;;;17.43;16.13;;;24.30;99.90;;;;;;5025619;28;20523;-70
2021/06/19 00:47:03;;;;;;;16.80;15.40;;;24.30;99.90;;;;;;5031231;28;20193;-71
2021/06/19 00:49:28;;;;;;;17.87;16.57;;;24.20;99.90;;;;;;5032524;28;20603;-70
2021/06/19 00:51:54;;;;;;;16.27;15.17;;;24.20;99.90;;;;;;5030074;28;20439;-70
2021/06/19 00:54:20;;;;;;;16.33;14.83;;;24.20;99.90;;;;;;5029514;28;20252;-70
2021/06/19 00:56:46;;;;;;;17.20;15.90;;;24.10;99.90;;;;;;5028973;28;20174;-71
2021/06/19 00:59:13;;;;;;;16.20;15.00;;;24.00;99.90;;;;;;5026906;28;20435;-71
2021/06/19 01:01:38;;;;;;;17.67;16.13;;;24.00;99.90;;;;;;5027981;28;20185;-70
2021/06/19 01:04:06;;;;;;;18.23;16.83;;;23.90;99.90;;;;;;5027927;28;20429;-71
2021/06/19 01:06:34;;;;;;;16.83;15.53;;;23.90;99.90;;;;;;5023459;28;20727;-72
2021/06/19 01:08:59;;;;;;;17.53;16.13;;;23.90;99.90;;;;;;5031672;28;20534;-70
2021/06/19 01:11:26;;;;;;;18.20;16.80;;;23.80;99.90;;;;;;5028519;28;20424;-70
2021/06/19 01:13:52;;;;;;;19.27;17.67;;;23.80;99.90;;;;;;5025204;28;20174;-71
2021/06/19 01:16:19;;;;;;;16.80;15.40;;;23.80;99.90;;;;;;5032366;28;20535;-70
2021/06/19 01:18:46;;;;;;;17.50;16.30;;;23.70;99.90;;;;;;5032051;28;20436;-70
2021/06/19 01:21:15;;;;;;;18.10;16.63;;;23.80;99.90;;;;;;5024319;28;20421;-70
2021/06/19 01:23:42;;;;;;;17.67;16.17;;;23.70;99.90;;;;;;5026208;28;20442;-70
2021/06/19 01:26:08;;;;;;;17.27;16.07;;;23.70;99.90;;;;;;5029781;28;20482;-71
2021/06/19 01:28:33;;;;;;;17.37;16.03;;;23.60;99.90;;;;;;5028899;28;20425;-70
2021/06/19 01:30:59;;;;;;;16.60;15.33;;;23.60;99.90;;;;;;5025678;28;20186;-71
2021/06/19 01:33:24;;;;;;;18.07;16.57;;;23.60;99.90;;;;;;5029697;28;20186;-70
2021/06/19 01:35:50;;;;;;;19.50;17.80;;;23.50;99.90;;;;;;5020555;28;20400;-71
2021/06/19 01:38:16;;;;;;;17.40;16.00;;;23.40;99.90;;;;;;5023650;28;20174;-71
2021/06/19 01:40:41;;;;;;;20.43;18.40;;;23.40;99.90;;;;;;5030791;28;20178;-71
2021/06/19 01:43:07;;;;;;;17.00;15.67;;;23.20;99.90;;;;;;5026808;28;20175;-71
2021/06/19 01:45:34;;;;;;;18.23;16.63;;;23.20;99.90;;;;;;5029596;28;20263;-71
2021/06/19 01:48:05;;;;;;;19.23;17.70;;;23.20;99.90;;;;;;5024306;28;20645;-71
2021/06/19 01:50:32;;;;;;;19.50;18.10;;;23.10;99.90;;;;;;5021191;28;20436;-71
2021/06/19 01:52:59;;;;;;;20.43;18.63;;;22.90;99.90;;;;;;5023699;28;20429;-71
2021/06/19 01:55:25;;;;;;;18.80;17.20;;;22.70;99.90;;;;;;5026755;28;20453;-71
2021/06/19 01:57:52;;;;;;;19.50;18.03;;;22.60;99.90;;;;;;5021746;28;20489;-70
2021/06/19 02:00:35;;;;;;;18.37;16.97;;;22.60;99.90;;;;;;5030302;28;20180;-71
2021/06/19 02:03:01;;;;;;;19.87;18.17;;;22.60;99.90;;;;;;5024919;28;20427;-70
2021/06/19 02:05:27;;;;;;;18.87;17.27;;;22.70;99.90;;;;;;5025971;28;20520;-70
2021/06/19 02:07:59;;;;;;;19.57;17.97;;;22.70;99.90;;;;;;5027404;28;20192;-70
2021/06/19 02:10:31;;;;;;;18.97;17.37;;;22.70;99.90;;;;;;5028285;28;20440;-71
2021/06/19 02:12:57;;;;;;;19.13;17.53;;;22.70;99.90;;;;;;5025912;28;20756;-70
2021/06/19 02:15:24;;;;;;;18.87;17.43;;;22.70;99.90;;;;;;5024445;28;20526;-70
2021/06/19 02:17:50;;;;;;;18.27;16.67;;;22.70;99.90;;;;;;5025517;28;20420;-70
2021/06/19 02:20:19;;;;;;;19.83;18.17;;;22.70;99.90;;;;;;5028308;28;20439;-70
2021/06/19 02:22:45;;;;;;;19.17;17.57;;;22.70;99.90;;;;;;5025887;28;20752;-70
2021/06/19 02:25:13;;;;;;;18.67;17.17;;;22.70;99.90;;;;;;5022424;28;20435;-70
2021/06/19 02:27:52;;;;;;;18.80;17.33;;;22.60;99.90;;;;;;5025152;28;20182;-71
2021/06/19 02:30:24;;;;;;;19.03;17.60;;;22.60;99.90;;;;;;5023783;28;20436;-70
2021/06/19 02:32:50;;;;;;;19.43;17.87;;;22.60;99.90;;;;;;5026464;28;20483;-71
2021/06/19 02:35:17;;;;;;;19.67;18.07;;;22.60;99.90;;;;;;5026357;28;20457;-70
2021/06/19 02:37:43;;;;;;;20.73;19.03;;;22.50;99.90;;;;;;5028217;28;20440;-70
2021/06/19 02:40:10;;;;;;;20.63;19.03;;;22.50;99.90;;;;;;5025416;28;21422;-71
2021/06/19 02:42:35;;;;;;;20.00;18.40;;;22.50;99.90;;;;;;5023120;28;20181;-70
2021/06/19 02:45:04;;;;;;;22.17;19.80;;;22.50;99.90;;;;;;5026746;28;20440;-71
2021/06/19 02:47:29;;;;;;;20.37;18.77;;;22.50;99.90;;;;;;5025960;28;20705;-70
2021/06/19 02:49:55;;;;;;;20.73;19.03;;;22.50;99.90;;;;;;5017810;28;20483;-71
2021/06/19 02:52:21;;;;;;;19.90;18.33;;;22.50;99.90;;;;;;5024918;28;20184;-70
2021/06/19 02:54:46;;;;;;;19.50;17.93;;;22.50;99.90;;;;;;5028204;28;20521;-71
2021/06/19 02:57:12;;;;;;;20.23;18.73;;;22.50;99.90;;;;;;5022535;28;20213;-70
2021/06/19 02:59:38;;;;;;;21.50;19.60;;;22.50;99.90;;;;;;5023680;28;20424;-70
2021/06/19 03:02:04;;;;;;;19.70;18.13;;;22.50;99.90;;;;;;5024732;28;20181;-71
2021/06/19 03:04:30;;;;;;;21.07;19.30;;;22.60;99.90;;;;;;5030348;28;20268;-71
2021/06/19 03:06:56;;;;;;;20.70;18.90;;;22.60;99.90;;;;;;5029501;28;20205;-71
2021/06/19 03:09:22;;;;;;;20.23;18.63;;;22.50;99.90;;;;;;5028460;28;20439;-71
2021/06/19 03:11:47;;;;;;;20.90;19.10;;;22.50;99.90;;;;;;5025785;28;20768;-71
2021/06/19 03:14:15;;;;;;;20.47;18.87;;;22.40;99.90;;;;;;5029719;28;20241;-70
2021/06/19 03:16:41;;;;;;;19.23;17.83;;;22.40;99.90;;;;;;5027803;28;20807;-71
2021/06/19 03:19:08;;;;;;;19.47;18.00;;;22.40;99.90;;;;;;5025178;28;20436;-70
2021/06/19 03:21:34;;;;;;;21.93;20.07;;;22.40;99.90;;;;;;5029528;28;20429;-71
2021/06/19 03:24:00;;;;;;;20.03;18.53;;;22.40;99.90;;;;;;5030313;28;20439;-71
2021/06/19 03:26:25;;;;;;;21.70;20.00;;;22.50;99.90;;;;;;5028249;28;20213;-71
2021/06/19 03:28:51;;;;;;;20.90;19.30;;;22.50;99.90;;;;;;5024882;28;20662;-70
2021/06/19 03:31:17;;;;;;;21.43;19.83;;;22.50;99.90;;;;;;5024626;28;20170;-71
2021/06/19 03:33:43;;;;;;;21.03;18.90;;;22.50;99.90;;;;;;5030226;28;20174;-71
2021/06/19 03:36:08;;;;;;;21.23;19.23;;;22.60;99.90;;;;;;5025907;28;20530;-70
2021/06/19 03:38:34;;;;;;;21.30;19.50;;;22.60;99.90;;;;;;5029804;28;20204;-71
2021/06/19 03:41:00;;;;;;;22.63;20.83;;;22.60;99.90;;;;;;5022914;28;20181;-71
2021/06/19 03:43:25;;;;;;;20.30;18.77;;;22.60;99.90;;;;;;5025750;28;20208;-70
2021/06/19 03:45:51;;;;;;;21.20;19.30;;;22.60;99.90;;;;;;5027372;28;20189;-71
2021/06/19 03:48:17;;;;;;;20.73;19.00;;;22.60;99.90;;;;;;5026713;28;20331;-71
2021/06/19 03:50:42;;;;;;;21.00;19.40;;;22.60;99.90;;;;;;5024984;28;20636;-71
2021/06/19 03:53:08;;;;;;;22.03;20.20;;;22.60;99.90;;;;;;5026819;28;20193;-70
2021/06/19 03:55:34;;;;;;;22.17;20.40;;;22.60;99.90;;;;;;5026833;28;20286;-70
2021/06/19 03:58:00;;;;;;;22.43;20.50;;;22.60;99.90;;;;;;5025041;28;20223;-70
2021/06/19 04:00:29;;;;;;;21.43;19.73;;;22.60;99.90;;;;;;5029836;28;20702;-70
2021/06/19 04:02:55;;;;;;;21.50;19.80;;;22.60;99.90;;;;;;5027887;28;20445;-70
2021/06/19 04:05:21;;;;;;;22.00;20.30;;;22.70;99.90;;;;;;5027065;28;20443;-70
2021/06/19 04:07:48;;;;;;;21.80;20.17;;;22.60;99.90;;;;;;5025753;28;20448;-71
2021/06/19 04:10:15;;;;;;;22.70;20.90;;;22.70;99.90;;;;;;5031266;28;20472;-70
2021/06/19 04:12:41;;;;;;;21.77;20.07;;;22.70;99.90;;;;;;5030881;28;20820;-70
2021/06/19 04:15:08;;;;;;;21.07;19.33;;;22.70;99.90;;;;;;5030845;28;20484;-71
2021/06/19 04:17:36;;;;;;;21.57;19.87;;;22.80;99.90;;;;;;5030258;28;20174;-70
2021/06/19 04:20:03;;;;;;;22.73;20.93;;;22.80;99.90;;;;;;5028970;28;20429;-71
2021/06/19 04:22:28;;;;;;;22.97;21.20;;;22.80;99.90;;;;;;5015691;28;20439;-71
2021/06/19 04:24:54;;;;;;;24.43;22.53;;;22.90;99.90;;;;;;5027917;28;20765;-70
2021/06/19 04:27:21;;;;;;;26.07;23.70;;;22.90;99.90;;;;;;5025104;28;20562;-70
2021/06/19 04:29:48;;;;;;;25.33;23.13;;;22.90;99.90;;;;;;5025551;28;20186;-70
2021/06/19 04:32:15;;;;;;;24.23;22.20;;;23.00;99.90;;;;;;5025755;28;20434;-70
2021/06/19 04:34:42;;;;;;;23.70;21.80;;;23.00;99.90;;;;;;5026770;28;20455;-71
2021/06/19 04:37:09;;;;;;;24.37;22.27;;;23.00;99.90;;;;;;5024874;28;20498;-70
2021/06/19 04:39:39;;;;;;;24.70;22.80;;;23.00;99.90;;;;;;5029813;28;20428;-70
2021/06/19 04:42:08;;;;;;;24.10;22.20;;;23.00;99.90;;;;;;5020632;28;20429;-70
2021/06/19 04:47:18;;;;;;;25.37;23.37;;;23.10;99.90;;;;;;5025975;28;21259;-71
2021/06/19 04:49:44;;;;;;;25.20;22.90;;;23.20;99.90;;;;;;5029209;28;20475;-71
2021/06/19 04:52:10;;;;;;;24.80;22.70;;;23.30;99.90;;;;;;5029527;28;20280;-71
2021/06/19 04:54:38;;;;;;;27.70;25.40;;;23.40;99.90;;;;;;5026049;28;20205;-71
2021/06/19 04:57:08;;;;;;;29.13;26.30;;;23.50;99.90;;;;;;5028685;28;20180;-71
2021/06/19 04:59:35;;;;;;;29.67;26.67;;;23.60;99.90;;;;;;5027765;28;20421;-70
2021/06/19 05:02:01;;;;;;;30.70;27.73;;;23.70;99.90;;;;;;5024715;28;20436;-71
2021/06/19 05:04:27;;;;;;;28.77;25.93;;;23.80;99.90;;;;;;5022649;28;20500;-70
2021/06/19 05:06:53;;;;;;;28.10;25.70;;;23.90;99.90;;;;;;5021813;28;21123;-71
2021/06/19 05:09:20;;;;;;;28.57;25.90;;;23.90;99.90;;;;;;5021374;28;20514;-70
2021/06/19 05:11:46;;;;;;;29.50;26.80;;;23.90;99.90;;;;;;5014237;28;20794;-75
2021/06/19 05:14:12;;;;;;;29.70;26.80;;;23.90;99.90;;;;;;5005454;28;20504;-73
2021/06/19 05:16:37;;;;;;;31.83;28.73;;;23.90;99.90;;;;;;5026655;28;20241;-75
2021/06/19 05:19:03;;;;;;;28.00;25.27;;;23.90;99.90;;;;;;5021207;28;20188;-75
2021/06/19 05:21:29;;;;;;;28.30;25.80;;;23.90;99.90;;;;;;5027152;28;20170;-74
2021/06/19 05:23:55;;;;;;;27.00;24.07;;;23.80;99.90;;;;;;5024900;28;20452;-74
2021/06/19 05:26:20;;;;;;;26.60;24.10;;;23.80;99.90;;;;;;5030795;28;20185;-75
2021/06/19 05:28:46;;;;;;;28.60;26.10;;;23.80;99.90;;;;;;5029910;28;20872;-75
2021/06/19 05:31:12;;;;;;;28.27;25.67;;;23.90;99.90;;;;;;5024757;28;20695;-75
2021/06/19 05:33:38;;;;;;;28.50;25.90;;;23.90;99.90;;;;;;5025772;28;20276;-75
2021/06/19 05:36:04;;;;;;;30.77;27.87;;;24.00;99.90;;;;;;5031587;28;20448;-74
2021/06/19 05:38:29;;;;;;;26.07;23.40;;;24.00;99.90;;;;;;5027070;28;20227;-75
2021/06/19 05:40:55;;;;;;;26.10;23.60;;;24.00;99.90;;;;;;5026339;28;20464;-75
2021/06/19 05:43:21;;;;;;;27.17;24.73;;;24.00;99.90;;;;;;5024069;28;20178;-76
2021/06/19 05:45:46;;;;;;;29.13;25.77;;;24.20;99.90;;;;;;5028989;28;20193;-74
2021/06/19 05:48:12;;;;;;;25.87;23.57;;;24.30;99.90;;;;;;5023436;28;20668;-75
2021/06/19 05:50:37;;;;;;;26.37;23.67;;;24.30;99.90;;;;;;5031405;28;20216;-75
2021/06/19 05:53:03;;;;;;;25.07;22.47;;;24.40;99.90;;;;;;5030384;28;20290;-74
2021/06/19 05:55:29;;;;;;;24.67;22.30;;;24.40;99.90;;;;;;5029773;28;21932;-74
2021/06/19 05:57:55;;;;;;;25.43;22.93;;;24.50;99.90;;;;;;5029742;28;20256;-74
2021/06/19 06:00:21;;;;;;;23.23;21.03;;;24.40;99.90;;;;;;5018568;28;20178;-75
2021/06/19 06:02:46;;;;;;;23.13;20.93;;;24.50;99.90;;;;;;5008661;28;20182;-75
2021/06/19 06:05:13;;;;;;;23.13;20.63;;;24.50;99.90;;;;;;5031274;28;20201;-74
2021/06/19 06:07:38;;;;;;;23.47;20.90;;;24.50;99.90;;;;;;5030915;28;20206;-74
2021/06/19 06:10:05;;;;;;;23.07;18.93;;;24.60;99.90;;;;;;5031691;28;20901;-74
2021/06/19 06:12:32;;;;;;;21.23;19.37;;;24.70;99.90;;;;;;5031158;28;20265;-73
2021/06/19 06:14:57;;;;;;;19.63;17.67;;;24.80;99.90;;;;;;5029672;28;20454;-72
2021/06/19 06:17:23;;;;;;;20.47;18.40;;;24.70;99.90;;;;;;5031916;28;20527;-74
2021/06/19 06:19:49;;;;;;;18.77;16.83;;;24.90;99.90;;;;;;5031989;28;20184;-73
2021/06/19 06:22:14;;;;;;;19.00;17.10;;;24.90;99.90;;;;;;5030350;28;20178;-73
2021/06/19 06:24:41;;;;;;;19.33;17.30;;;25.00;99.90;;;;;;5030485;28;20596;-74
2021/06/19 06:27:08;;;;;;;18.30;16.40;;;25.00;99.90;;;;;;5029092;28;20174;-73
2021/06/19 06:29:34;;;;;;;22.80;16.20;;;25.10;99.90;;;;;;5030168;28;20448;-73
2021/06/19 06:31:59;;;;;;;16.30;14.97;;;25.10;99.90;;;;;;5030838;28;20454;-73
2021/06/19 06:34:25;;;;;;;13.87;12.47;;;25.20;99.90;;;;;;5031432;28;20197;-74
2021/06/19 06:36:52;;;;;;;13.90;12.70;;;25.20;99.90;;;;;;5030891;28;20181;-73
2021/06/19 06:39:18;;;;;;;13.33;12.03;;;25.30;99.90;;;;;;5030927;28;20174;-74
2021/06/19 06:41:44;;;;;;;13.20;12.00;;;25.30;99.90;;;;;;5050281;28;20847;-74
2021/06/19 06:44:10;;;;;;;10.63;9.70;;;25.30;99.90;;;;;;5053003;28;20492;-73
2021/06/19 06:46:36;;;;;;;10.70;9.90;;;25.40;99.90;;;;;;5058266;28;20177;-72
2021/06/19 06:49:02;;;;;;;15.20;9.93;;;25.60;99.90;;;;;;5058554;28;20424;-72
2021/06/19 06:51:28;;;;;;;9.47;8.67;;;25.70;99.90;;;;;;5057718;28;20158;-72
2021/06/19 06:53:54;;;;;;;9.60;8.70;;;25.70;99.90;;;;;;5062510;28;20494;-73
2021/06/19 06:56:19;;;;;;;10.60;8.70;;;25.80;99.90;;;;;;5042344;28;20212;-72
2021/06/19 06:58:45;;;;;;;8.57;7.93;;;25.80;99.90;;;;;;5044664;28;20208;-74
2021/06/19 07:01:11;;;;;;;9.60;8.70;;;25.80;99.90;;;;;;5042305;28;20241;-73
2021/06/19 07:03:36;;;;;;;7.00;6.30;;;25.90;99.90;;;;;;5032306;28;20170;-72
2021/06/19 07:06:03;;;;;;;6.50;5.63;;;26.00;99.90;;;;;;5029248;28;20719;-73
2021/06/19 07:08:28;;;;;;;6.03;5.53;;;26.00;99.90;;;;;;5031533;28;20192;-71
2021/06/19 07:10:54;;;;;;;6.20;5.60;;;26.10;99.90;;;;;;5031909;28;20519;-76
2021/06/19 07:13:20;;;;;;;6.27;5.67;;;26.10;99.90;;;;;;5023849;28;20178;-76
2021/06/19 07:15:46;;;;;;;4.27;3.97;;;26.20;99.90;;;;;;5026959;28;20276;-74
2021/06/19 07:18:12;;;;;;;5.43;4.90;;;26.30;99.90;;;;;;5022671;28;20181;-76
2021/06/19 07:20:38;;;;;;;5.03;4.60;;;26.30;99.90;;;;;;5027903;28;20233;-75
2021/06/19 07:23:04;;;;;;;4.77;4.47;;;26.30;99.90;;;;;;5025373;28;20425;-75
2021/06/19 07:25:30;;;;;;;4.57;4.10;;;26.30;99.90;;;;;;5026333;28;20917;-77
2021/06/19 07:27:58;;;;;;;5.53;4.27;;;26.40;99.90;;;;;;5026025;28;20483;-78
2021/06/19 07:30:24;;;;;;;6.13;3.73;;;26.40;99.90;;;;;;5028175;28;20174;-79
2021/06/19 07:32:50;;;;;;;3.60;3.40;;;26.30;99.90;;;;;;5032684;28;20570;-80
2021/06/19 07:35:16;;;;;;;3.40;3.20;;;26.30;99.90;;;;;;5016960;28;20460;-77
2021/06/19 07:37:42;;;;;;;2.90;2.80;;;26.50;99.90;;;;;;5032488;28;20424;-77
2021/06/19 07:40:08;;;;;;;3.63;3.40;;;26.50;99.90;;;;;;5015741;28;20178;-76
2021/06/19 07:42:39;;;;;;;3.37;3.17;;;26.50;99.90;;;;;;5029694;28;20193;-80
2021/06/19 07:45:17;;;;;;;3.40;3.13;;;26.50;99.90;;;;;;5008372;28;20427;-79
2021/06/19 07:47:44;;;;;;;3.70;3.40;;;26.70;99.90;;;;;;5019910;28;20424;-78
2021/06/19 07:50:10;;;;;;;2.90;2.70;;;26.60;99.90;;;;;;5032686;28;20443;-79
2021/06/19 07:52:35;;;;;;;3.30;3.00;;;26.60;99.90;;;;;;5032721;28;20436;-76
2021/06/19 07:55:01;;;;;;;4.37;3.17;;;26.60;99.90;;;;;;5034607;28;20463;-77
2021/06/19 07:57:27;;;;;;;5.00;3.30;;;26.50;99.90;;;;;;5035072;28;20178;-77
2021/06/19 07:59:53;;;;;;;4.17;3.00;;;26.50;99.90;;;;;;5034684;28;20186;-77
2021/06/19 08:02:19;;;;;;;3.03;2.83;;;26.60;99.90;;;;;;5033913;28;20488;-77
2021/06/19 08:04:45;;;;;;;4.40;3.03;;;26.70;99.90;;;;;;5034031;28;20181;-78
2021/06/19 08:07:35;;;;;;;3.23;2.63;;;26.70;99.90;;;;;;5034089;28;20769;-79
2021/06/19 08:10:03;;;;;;;3.33;3.13;;;26.70;99.90;;;;;;5038024;28;20174;-86
2021/06/19 08:12:41;;;;;;;6.40;3.00;;;26.70;99.90;;;;;;5036738;28;20431;-83
2021/06/19 08:15:08;;;;;;;2.73;2.63;;;26.80;99.90;;;;;;5034852;28;20486;-83
2021/06/19 08:17:33;;;;;;;2.80;2.63;;;26.90;99.90;;;;;;5035841;28;20478;-78
2021/06/19 08:19:59;;;;;;;2.70;2.50;;;26.80;99.90;;;;;;5034117;28;20432;-80
2021/06/19 08:22:25;;;;;;;2.33;2.10;;;26.80;99.90;;;;;;5034273;28;20178;-81
2021/06/19 08:24:51;;;;;;;2.67;2.47;;;26.80;99.90;;;;;;5034442;28;20561;-79
2021/06/19 08:27:22;;;;;;;2.70;2.50;;;26.90;99.90;;;;;;5009195;28;20243;-79
2021/06/19 08:29:48;;;;;;;2.53;2.43;;;26.80;99.90;;;;;;5034934;28;20251;-82
2021/06/19 08:32:14;;;;;;;3.17;2.70;;;26.90;99.90;;;;;;5035570;28;20900;-83
2021/06/19 08:34:40;;;;;;;3.40;3.10;;;27.00;99.90;;;;;;5033944;28;20452;-81
2021/06/19 08:37:06;;;;;;;2.90;2.70;;;26.90;99.90;;;;;;5034637;28;20178;-81
2021/06/19 08:39:32;;;;;;;2.93;2.80;;;27.10;99.90;;;;;;5033994;28;20257;-81
2021/06/19 08:41:58;;;;;;;2.67;2.57;;;27.10;99.90;;;;;;5033339;28;20531;-81
2021/06/19 08:44:27;;;;;;;3.40;3.20;;;27.10;99.90;;;;;;5033940;28;20436;-79
2021/06/19 08:46:55;;;;;;;5.43;2.80;;;27.10;99.90;;;;;;5033032;28;20502;-79
2021/06/19 08:49:25;;;;;;;3.10;2.90;;;27.00;99.90;;;;;;5037444;28;20952;-78
2021/06/19 08:51:53;;;;;;;2.57;2.47;;;26.90;99.90;;;;;;5034458;28;20436;-77
2021/06/19 08:54:20;;;;;;;2.67;2.57;;;26.80;99.90;;;;;;5034413;28;20420;-74
2021/06/19 08:56:46;;;;;;;2.73;2.53;;;26.80;99.90;;;;;;5033254;28;20429;-74
2021/06/19 08:59:12;;;;;;;4.20;2.70;;;27.00;99.90;;;;;;5032323;28;20831;-74
2021/06/19 09:01:39;;;;;;;4.63;3.20;;;27.10;99.90;;;;;;5032436;28;20527;-74
2021/06/19 09:04:07;;;;;;;2.90;2.70;;;27.20;99.90;;;;;;5032536;28;20431;-79
2021/06/19 09:06:38;;;;;;;3.27;3.17;;;27.30;99.90;;;;;;5048765;28;20416;-78
2021/06/19 09:09:14;;;;;;;4.03;3.20;;;27.30;99.90;;;;;;5039714;28;20479;-79
2021/06/19 09:11:40;;;;;;;3.10;2.90;;;27.20;99.90;;;;;;5045115;28;20420;-75
2021/06/19 09:14:14;;;;;;;2.47;2.37;;;27.40;99.90;;;;;;5037823;28;20428;-82
2021/06/19 09:16:42;;;;;;;2.77;2.67;;;27.50;99.90;;;;;;5045415;28;20890;-78
2021/06/19 09:19:28;;;;;;;3.00;2.80;;;27.70;99.90;;;;;;5040490;28;20425;-79
2021/06/19 09:22:15;;;;;;;3.10;2.97;;;27.80;99.90;;;;;;5051093;28;20539;-78
2021/06/19 09:24:43;;;;;;;3.17;2.87;;;28.00;99.90;;;;;;5048928;28;20428;-78
2021/06/19 09:27:47;;;;;;;3.00;2.80;;;28.30;99.90;;;;;;5039170;28;20436;-82
2021/06/19 09:30:21;;;;;;;2.30;2.20;;;28.50;99.90;;;;;;4963159;28;20450;-79
2021/06/19 09:33:03;;;;;;;3.10;2.90;;;28.60;99.90;;;;;;4964851;28;20442;-81
2021/06/19 09:35:31;;;;;;;2.90;2.80;;;28.30;99.90;;;;;;4983300;28;20764;-81
2021/06/19 09:38:04;;;;;;;4.27;2.80;;;27.80;99.90;;;;;;5023203;28;20516;-80
2021/06/19 09:40:31;;;;;;;5.00;3.03;;;27.60;99.90;;;;;;5022489;28;20523;-77
2021/06/19 09:43:27;;;;;;;2.87;2.70;;;27.60;99.90;;;;;;5028112;28;20451;-76
2021/06/19 09:46:02;;;;;;;3.17;2.97;;;27.90;99.90;;;;;;5028467;28;20452;-75
2021/06/19 09:48:31;;;;;;;2.93;2.70;;;28.00;99.90;;;;;;5028680;28;20435;-81
2021/06/19 09:51:20;;;;;;;4.70;3.10;;;28.20;99.90;;;;;;5035523;28;20444;-82
2021/06/19 09:53:52;;;;;;;3.00;2.80;;;28.30;99.90;;;;;;5036419;28;20429;-81
2021/06/19 09:56:20;;;;;;;3.20;2.93;;;28.60;99.90;;;;;;5026550;28;20433;-81
2021/06/19 09:58:53;;;;;;;3.20;2.97;;;28.70;99.90;;;;;;5030320;28;20439;-79
2021/06/19 10:01:40;;;;;;;3.63;3.37;;;28.50;99.90;;;;;;5038006;28;20898;-79
2021/06/19 10:04:06;;;;;;;3.10;2.90;;;28.40;99.90;;;;;;5026000;28;20449;-77
2021/06/19 10:06:33;;;;;;;4.47;2.93;;;28.30;99.90;;;;;;5027034;28;20957;-78
2021/06/19 10:08:59;;;;;;;2.37;2.17;;;28.40;99.90;;;;;;5018309;28;20448;-76
2021/06/19 10:11:27;;;;;;;3.40;3.20;;;28.50;99.90;;;;;;5030912;28;20423;-78
2021/06/19 10:13:56;;;;;;;2.27;2.17;;;28.60;99.90;;;;;;5033851;28;20431;-77
2021/06/19 10:16:23;;;;;;;5.73;3.00;;;28.80;99.90;;;;;;5033824;28;20946;-78
2021/06/19 10:18:50;;;;;;;2.87;2.77;;;28.90;99.90;;;;;;5033819;28;20902;-78
2021/06/19 10:21:16;;;;;;;3.60;3.20;;;28.90;99.90;;;;;;5027896;28;20445;-77
2021/06/19 10:23:42;;;;;;;3.00;2.80;;;29.00;99.90;;;;;;5028284;28;20436;-78
2021/06/19 10:26:08;;;;;;;2.70;2.60;;;29.10;99.90;;;;;;5033351;28;20452;-77
2021/06/19 10:28:40;;;;;;;4.00;2.67;;;29.30;99.90;;;;;;5031831;28;20428;-78
2021/06/19 10:31:06;;;;;;;2.77;2.67;;;29.10;99.90;;;;;;5035820;28;20216;-78
2021/06/19 10:33:34;;;;;;;2.43;2.33;;;29.10;99.90;;;;;;5017490;28;20993;-78
2021/06/19 10:36:03;;;;;;;2.70;2.60;;;29.40;99.90;;;;;;5031220;28;20178;-78
2021/06/19 10:38:31;;;;;;;3.13;2.73;;;29.50;99.90;;;;;;5006784;28;20413;-78
2021/06/19 10:40:59;;;;;;;3.20;2.20;;;29.70;99.90;;;;;;5036266;28;20818;-78
2021/06/19 10:43:27;;;;;;;2.50;2.30;;;29.60;99.90;;;;;;5035053;28;20480;-78
2021/06/19 10:45:54;;;;;;;2.60;2.43;;;29.70;99.90;;;;;;5035595;28;20463;-78
2021/06/19 10:48:34;;;;;;;2.40;2.30;;;29.70;99.90;;;;;;5036134;28;20470;-78
2021/06/19 10:51:18;;;;;;;2.40;2.30;;;29.50;99.90;;;;;;5035371;28;20772;-78
2021/06/19 10:54:21;;;;;;;2.80;2.60;;;29.50;99.90;;;;;;5034883;28;20427;-78
2021/06/19 10:56:59;;;;;;;2.33;2.20;;;29.80;99.90;;;;;;5035049;28;20745;-78
2021/06/19 10:59:34;;;;;;;2.63;2.33;;;30.00;99.90;;;;;;5038845;28;20412;-78
2021/06/19 11:02:02;;;;;;;2.37;2.27;;;29.60;99.90;;;;;;5039889;28;20439;-78
2021/06/19 11:04:40;;;;;;;2.53;2.43;;;29.30;99.90;;;;;;5037260;28;20416;-78
2021/06/19 11:07:29;;;;;;;2.23;2.10;;;29.30;99.90;;;;;;5040798;28;20865;-78
2021/06/19 11:09:54;;;;;;;4.50;2.07;;;29.50;99.90;;;;;;5015771;28;20921;-78
2021/06/19 11:12:32;;;;;;;2.00;1.80;;;30.00;99.90;;;;;;5042313;28;20405;-78
2021/06/19 11:15:04;;;;;;;2.30;2.10;;;30.30;99.90;;;;;;5042172;28;20170;-78
2021/06/19 11:17:33;;;;;;;2.30;2.03;;;30.40;99.90;;;;;;5031256;28;20420;-78
2021/06/19 11:20:21;;;;;;;2.07;1.93;;;30.30;99.90;;;;;;5039601;28;20423;-78
2021/06/19 11:22:52;;;;;;;2.73;2.53;;;30.50;99.90;;;;;;5041986;28;20409;-78
2021/06/19 11:25:39;;;;;;;2.53;2.30;;;30.70;99.90;;;;;;5043899;28;20444;-78
2021/06/19 11:28:25;;;;;;;2.10;2.00;;;30.70;99.90;;;;;;5042056;28;20408;-78
2021/06/19 11:31:17;;;;;;;2.13;2.03;;;31.00;99.90;;;;;;5043424;28;20416;-78
2021/06/19 11:33:43;;;;;;;2.67;2.57;;;31.10;99.90;;;;;;5043741;28;20878;-78
2021/06/19 11:36:14;;;;;;;2.23;2.13;;;31.30;99.90;;;;;;5001048;28;20421;-78
2021/06/19 11:38:51;;;;;;;2.30;2.20;;;31.50;99.90;;;;;;5040597;28;20412;-78
2021/06/19 11:41:23;;;;;;;2.10;2.00;;;31.60;99.90;;;;;;5040932;28;20905;-78
2021/06/19 11:43:49;;;;;;;2.07;1.97;;;31.80;99.90;;;;;;5043174;28;20411;-78
2021/06/19 11:46:20;;;;;;;2.20;2.10;;;31.60;99.90;;;;;;5042697;28;20852;-78
2021/06/19 11:48:59;;;;;;;1.83;1.73;;;31.70;99.90;;;;;;5033716;28;20409;-78
2021/06/19 11:51:31;;;;;;;2.10;2.00;;;31.90;99.90;;;;;;5043149;28;20455;-78
2021/06/19 11:53:57;;;;;;;2.30;2.20;;;31.90;99.90;;;;;;5019212;28;20461;-78
2021/06/19 11:56:26;;;;;;;2.00;1.90;;;31.70;99.90;;;;;;5044380;28;20427;-78
2021/06/19 11:58:53;;;;;;;3.43;2.13;;;31.60;99.90;;;;;;5046142;28;20221;-78
2021/06/19 12:01:25;;;;;;;3.30;2.50;;;31.20;99.90;;;;;;5044587;28;20889;-78
2021/06/19 12:03:52;;;;;;;4.50;1.87;;;31.20;99.90;;;;;;5046364;28;20747;-78
2021/06/19 12:06:28;;;;;;;2.40;2.20;;;31.30;99.90;;;;;;5044965;28;20529;-78
2021/06/19 12:08:54;;;;;;;2.17;2.07;;;31.40;99.90;;;;;;5045521;28;20465;-78
2021/06/19 12:11:28;;;;;;;2.20;2.10;;;31.40;99.90;;;;;;5043857;28;20408;-78
2021/06/19 12:13:53;;;;;;;2.03;1.93;;;31.40;99.90;;;;;;5047513;28;20170;-78
2021/06/19 12:16:26;;;;;;;2.77;1.63;;;31.30;99.90;;;;;;5018524;28;20876;-78
2021/06/19 12:19:03;;;;;;;2.10;2.00;;;31.50;99.90;;;;;;5044869;28;20227;-78
2021/06/19 12:21:34;;;;;;;2.70;2.53;;;31.70;99.90;;;;;;5044613;28;20435;-78
2021/06/19 12:24:01;;;;;;;2.20;2.10;;;31.60;99.90;;;;;;5046303;28;20499;-78
2021/06/19 12:26:27;;;;;;;3.67;2.30;;;31.60;99.90;;;;;;5047618;28;20449;-78
2021/06/19 12:28:54;;;;;;;1.93;1.83;;;31.80;99.90;;;;;;5045989;28;20408;-78
2021/06/19 12:31:24;;;;;;;2.03;1.90;;;31.90;99.90;;;;;;5046717;28;20427;-78
2021/06/19 12:33:59;;;;;;;2.40;2.20;;;32.10;99.90;;;;;;5047668;28;20427;-78
2021/06/19 12:36:25;;;;;;;3.13;2.00;;;32.30;99.90;;;;;;5046394;28;20408;-78
2021/06/19 12:38:52;;;;;;;1.90;1.80;;;32.70;99.90;;;;;;5045747;28;20415;-78
2021/06/19 12:41:18;;;;;;;1.80;1.70;;;33.00;99.90;;;;;;5046945;28;20409;-79
2021/06/19 12:43:54;;;;;;;2.10;1.90;;;33.40;99.40;;;;;;5046420;28;20557;-78